createdAt,value
2022-08-02T00:00:08.140Z,98097.97
2022-08-02T00:02:34.444Z,98103.56
2022-08-02T00:05:00.770Z,98114.59
2022-08-02T00:07:27.154Z,98097.91
2022-08-02T00:09:53.614Z,98101.97
2022-08-02T00:12:20.120Z,98098.72
2022-08-02T00:14:46.444Z,98091.97
2022-08-02T00:17:13.102Z,98084.44
2022-08-02T00:19:39.443Z,98093.88
2022-08-02T00:22:05.934Z,98097.88
2022-08-02T00:24:32.274Z,98092.78
2022-08-02T00:26:58.816Z,98101.09
2022-08-02T00:29:25.170Z,98098.94
2022-08-02T00:31:51.680Z,98093.56
2022-08-02T00:34:29.182Z,98102.94
2022-08-02T00:36:57.471Z,98100.53
2022-08-02T00:39:35.395Z,98092.75
2022-08-02T00:42:02.687Z,98092.19
2022-08-02T00:44:29.076Z,98090.84
2022-08-02T00:46:55.433Z,98092.97
2022-08-02T00:49:21.999Z,98095.16
2022-08-02T00:51:48.454Z,98096.19
2022-08-02T00:54:14.907Z,98103.44
2022-08-02T00:56:49.484Z,98101.00
2022-08-02T00:59:17.727Z,98099.41
2022-08-02T01:01:56.176Z,98105.06
2022-08-02T01:04:29.767Z,98107.19
2022-08-02T01:06:57.285Z,98108.50
2022-08-02T01:09:23.861Z,98118.69
2022-08-02T01:11:50.269Z,98122.72
2022-08-02T01:14:16.782Z,98126.72
2022-08-02T01:16:44.320Z,98129.69
2022-08-02T01:19:15.954Z,98125.66
2022-08-02T01:21:42.633Z,98123.47
2022-08-02T01:24:09.365Z,98128.31
2022-08-02T01:26:35.964Z,98126.69
2022-08-02T01:29:02.475Z,98129.91
2022-08-02T01:31:28.779Z,98120.22
2022-08-02T01:33:55.100Z,98128.53
2022-08-02T01:36:21.481Z,98129.06
2022-08-02T01:38:47.751Z,98123.69
2022-08-02T01:41:14.105Z,98117.78
2022-08-02T01:43:40.453Z,98118.03
2022-08-02T01:46:06.781Z,98113.22
2022-08-02T01:48:33.196Z,98112.38
2022-08-02T01:50:59.626Z,98111.03
2022-08-02T01:53:25.926Z,98105.09
2022-08-02T01:55:57.917Z,98100.00
2022-08-02T01:58:25.240Z,98101.31
2022-08-02T02:00:51.765Z,98105.88
2022-08-02T02:03:18.146Z,98102.63
2022-08-02T02:05:44.583Z,98097.53
2022-08-02T02:08:10.997Z,98098.88
2022-08-02T02:10:37.384Z,98106.09
2022-08-02T02:13:03.739Z,98100.19
2022-08-02T02:15:30.047Z,98096.97
2022-08-02T02:18:13.210Z,98098.03
2022-08-02T02:20:39.994Z,98097.47
2022-08-02T02:23:06.262Z,98112.75
2022-08-02T02:25:35.763Z,98108.72
2022-08-02T02:28:02.902Z,98103.63
2022-08-02T02:30:29.220Z,98110.31
2022-08-02T02:32:55.527Z,98104.41
2022-08-02T02:35:21.890Z,98098.47
2022-08-02T02:37:48.228Z,98089.09
2022-08-02T02:40:14.678Z,98097.13
2022-08-02T02:42:41.272Z,98101.94
2022-08-02T02:45:08.072Z,98093.34
2022-08-02T02:47:40.283Z,98098.97
2022-08-02T02:50:08.103Z,98100.06
2022-08-02T02:52:34.399Z,98100.28
2022-08-02T02:55:01.423Z,98098.94
2022-08-02T02:57:27.869Z,98099.22
2022-08-02T02:59:54.454Z,98098.38
2022-08-02T03:02:21.158Z,98102.94
2022-08-02T03:04:56.453Z,98102.38
2022-08-02T03:07:23.957Z,98102.09
2022-08-02T03:09:54.289Z,98101.56
2022-08-02T03:12:21.266Z,98100.19
2022-08-02T03:14:49.438Z,98103.13
2022-08-02T03:17:17.457Z,98102.56
2022-08-02T03:19:43.802Z,98097.47
2022-08-02T03:22:10.656Z,98106.34
2022-08-02T03:24:37.065Z,98101.22
2022-08-02T03:27:03.525Z,98089.97
2022-08-02T03:29:34.330Z,98087.78
2022-08-02T03:32:01.073Z,98095.03
2022-08-02T03:34:27.358Z,98094.47
2022-08-02T03:36:53.823Z,98093.91
2022-08-02T03:39:20.256Z,98089.63
2022-08-02T03:41:46.792Z,98088.81
2022-08-02T03:44:13.137Z,98095.22
2022-08-02T03:46:39.486Z,98087.44
2022-08-02T03:49:05.960Z,98085.84
2022-08-02T03:51:32.317Z,98081.53
2022-08-02T03:53:58.781Z,98077.25
2022-08-02T03:56:25.098Z,98081.00
2022-08-02T03:58:51.444Z,98084.69
2022-08-02T04:01:17.867Z,98083.09
2022-08-02T04:03:44.312Z,98082.00
2022-08-02T04:06:11.151Z,98076.66
2022-08-02T04:08:38.712Z,98068.63
2022-08-02T04:11:05.394Z,98073.16
2022-08-02T04:13:35.667Z,98079.34
2022-08-02T04:16:02.543Z,98071.28
2022-08-02T04:18:28.897Z,98078.31
2022-08-02T04:20:55.217Z,98086.34
2022-08-02T04:23:21.782Z,98087.44
2022-08-02T04:25:48.194Z,98091.50
2022-08-02T04:28:18.536Z,98090.66
2022-08-02T04:30:44.993Z,98091.50
2022-08-02T04:33:11.272Z,98097.41
2022-08-02T04:35:37.892Z,98100.88
2022-08-02T04:38:08.816Z,98097.66
2022-08-02T04:40:36.371Z,98102.19
2022-08-02T04:43:03.104Z,98110.25
2022-08-02T04:45:29.603Z,98107.31
2022-08-02T04:48:04.441Z,98114.34
2022-08-02T04:50:31.954Z,98112.75
2022-08-02T04:52:58.284Z,98122.91
2022-08-02T04:55:24.584Z,98120.78
2022-08-02T04:57:53.087Z,98126.75
2022-08-02T05:00:19.674Z,98127.47
2022-08-02T05:02:48.518Z,98119.47
2022-08-02T05:05:17.013Z,98120.63
2022-08-02T05:07:43.336Z,98130.94
2022-08-02T05:10:09.823Z,98137.19
2022-08-02T05:12:36.205Z,98127.03
2022-08-02T05:15:02.543Z,98132.19
2022-08-02T05:17:28.858Z,98132.78
2022-08-02T05:19:55.315Z,98122.59
2022-08-02T05:22:21.773Z,98124.28
2022-08-02T05:24:49.252Z,98131.81
2022-08-02T05:27:16.573Z,98129.41
2022-08-02T05:29:52.989Z,98134.81
2022-08-02T05:32:20.546Z,98132.91
2022-08-02T05:34:50.538Z,98122.16
2022-08-02T05:37:16.852Z,98129.44
2022-08-02T05:39:55.928Z,98132.38
2022-08-02T05:42:22.731Z,98132.94
2022-08-02T05:44:49.209Z,98141.03
2022-08-02T05:47:15.546Z,98138.81
2022-08-02T05:49:41.945Z,98131.00
2022-08-02T05:52:08.867Z,98145.53
2022-08-02T05:54:35.502Z,98147.13
2022-08-02T05:57:01.823Z,98151.44
2022-08-02T05:59:28.174Z,98150.59
2022-08-02T06:01:54.724Z,98145.19
2022-08-02T06:04:22.109Z,98143.00
2022-08-02T06:06:48.640Z,98153.75
2022-08-02T06:09:15.182Z,98150.16
2022-08-02T06:11:41.669Z,98158.97
2022-08-02T06:14:30.491Z,98151.88
2022-08-02T06:16:57.107Z,98155.50
2022-08-02T06:19:23.845Z,98154.03
2022-08-02T06:22:42.028Z,98147.53
2022-08-02T06:24:36.997Z,98155.00
2022-08-02T06:27:03.620Z,98155.50
2022-08-02T06:29:29.931Z,98161.09
2022-08-02T06:31:56.507Z,98153.31
2022-08-02T06:34:23.592Z,98161.31
2022-08-02T06:36:50.001Z,98157.38
2022-08-02T06:39:17.270Z,98156.41
2022-08-02T06:41:43.684Z,98158.72
2022-08-02T06:44:44.752Z,98161.06
2022-08-02T06:47:11.065Z,98160.34
2022-08-02T06:49:52.265Z,98158.56
2022-08-02T06:52:23.230Z,98155.16
2022-08-02T06:54:53.434Z,98149.03
2022-08-02T06:57:19.963Z,98158.06
2022-08-02T06:59:46.323Z,98152.41
2022-08-02T07:02:13.083Z,98147.66
2022-08-02T07:04:39.930Z,98143.13
2022-08-02T07:07:06.609Z,98144.81
2022-08-02T07:09:33.366Z,98145.66
2022-08-02T07:11:59.753Z,98150.28
2022-08-02T07:14:26.072Z,98151.13
2022-08-02T07:16:52.612Z,98161.19
2022-08-02T07:19:18.957Z,98162.03
2022-08-02T07:21:56.762Z,98159.63
2022-08-02T07:24:26.794Z,98158.22
2022-08-02T07:27:10.766Z,98149.38
2022-08-02T07:29:44.772Z,98142.84
2022-08-02T07:32:12.297Z,98129.50
2022-08-02T07:34:38.818Z,98129.09
2022-08-02T07:37:09.080Z,98131.63
2022-08-02T07:39:45.042Z,98129.00
2022-08-02T07:42:11.901Z,98119.16
2022-08-02T07:44:38.534Z,98119.56
2022-08-02T07:47:05.019Z,98126.28
2022-08-02T07:49:31.832Z,98118.78
2022-08-02T07:51:58.301Z,98131.53
2022-08-02T07:54:24.748Z,98128.06
2022-08-02T07:56:58.177Z,98134.59
2022-08-02T07:59:25.687Z,98145.75
2022-08-02T08:01:52.112Z,98145.53
2022-08-02T08:04:18.565Z,98147.38
2022-08-02T08:06:44.892Z,98156.00
2022-08-02T08:09:11.354Z,98160.19
2022-08-02T08:11:37.659Z,98153.16
2022-08-02T08:14:04.025Z,98163.16
2022-08-02T08:16:30.412Z,98169.72
2022-08-02T08:18:56.882Z,98136.09
2022-08-02T08:21:23.595Z,98163.47
2022-08-02T08:23:49.912Z,98167.97
2022-08-02T08:26:16.282Z,98175.16
2022-08-02T08:28:42.797Z,98179.63
2022-08-02T08:31:09.285Z,98184.25
2022-08-02T08:33:35.704Z,98182.47
2022-08-02T08:36:02.774Z,98184.78
2022-08-02T08:38:29.180Z,98188.81
2022-08-02T08:40:55.530Z,98196.28
2022-08-02T08:43:21.909Z,98154.66
2022-08-02T08:45:56.139Z,98180.19
2022-08-02T08:48:30.393Z,98140.91
2022-08-02T08:50:58.178Z,98129.19
2022-08-02T08:53:36.845Z,98143.34
2022-08-02T08:56:03.407Z,98147.81
2022-08-02T08:58:29.865Z,98081.53
2022-08-02T09:00:56.552Z,98106.22
2022-08-02T09:03:22.966Z,98105.84
2022-08-02T09:05:50.005Z,98073.13
2022-08-02T09:08:17.196Z,98075.19
2022-08-02T09:10:43.722Z,98078.84
2022-08-02T09:13:37.559Z,98075.03
2022-08-02T09:15:56.909Z,98070.63
2022-08-02T09:18:23.393Z,98074.22
2022-08-02T09:20:49.854Z,98071.75
2022-08-02T09:23:16.302Z,98058.41
2022-08-02T09:25:42.967Z,98059.63
2022-08-02T09:28:25.629Z,98055.47
2022-08-02T09:30:52.173Z,98057.19
2022-08-02T09:33:18.705Z,98051.88
2022-08-02T09:36:06.160Z,98044.06
2022-08-02T09:38:31.416Z,98045.66
2022-08-02T09:40:57.799Z,98045.97
2022-08-02T09:43:24.570Z,98060.63
2022-08-02T09:45:50.967Z,98048.78
2022-08-02T09:48:17.660Z,98061.84
2022-08-02T09:50:44.373Z,98056.56
2022-08-02T09:53:10.898Z,98064.81
2022-08-02T09:55:37.382Z,98071.44
2022-08-02T09:58:03.686Z,98058.00
2022-08-02T10:00:50.721Z,98056.19
2022-08-02T10:03:22.402Z,98055.19
2022-08-02T10:05:55.989Z,98055.00
2022-08-02T10:08:23.830Z,98054.00
2022-08-02T10:10:50.721Z,98047.59
2022-08-02T10:13:21.942Z,98056.00
2022-08-02T10:15:50.586Z,98053.59
2022-08-02T10:18:37.086Z,98065.06
2022-08-02T10:21:03.790Z,98057.56
2022-08-02T10:23:30.231Z,98062.47
2022-08-02T10:26:00.363Z,98064.69
2022-08-02T10:28:27.069Z,98066.06
2022-08-02T10:30:53.402Z,98053.13
2022-08-02T10:33:19.726Z,98053.44
2022-08-02T10:35:46.033Z,98054.56
2022-08-02T10:38:12.659Z,98051.03
2022-08-02T10:40:38.981Z,98046.94
2022-08-02T10:43:10.940Z,98044.22
2022-08-02T10:45:37.364Z,98050.22
2022-08-02T10:48:03.945Z,98049.72
2022-08-02T10:50:30.342Z,98046.53
2022-08-02T10:52:56.767Z,98041.41
2022-08-02T10:55:23.193Z,98046.53
2022-08-02T10:57:50.183Z,98046.53
2022-08-02T11:00:19.497Z,98038.41
2022-08-02T11:02:46.049Z,98040.63
2022-08-02T11:05:12.426Z,98034.69
2022-08-02T11:07:39.246Z,98035.78
2022-08-02T11:10:05.624Z,98031.47
2022-08-02T11:12:33.323Z,98027.19
2022-08-02T11:14:59.979Z,98022.03
2022-08-02T11:17:26.368Z,98027.47
2022-08-02T11:19:52.764Z,98022.03
2022-08-02T11:22:23.751Z,98030.97
2022-08-02T11:24:51.981Z,98030.97
2022-08-02T11:27:18.606Z,98020.97
2022-08-02T11:29:48.501Z,98024.47
2022-08-02T11:32:15.477Z,98023.34
2022-08-02T11:34:42.058Z,98025.75
2022-08-02T11:37:08.798Z,98018.75
2022-08-02T11:39:35.211Z,98021.47
2022-08-02T11:42:01.916Z,98029.28
2022-08-02T11:44:28.321Z,98025.44
2022-08-02T11:46:54.668Z,98029.28
2022-08-02T11:49:21.098Z,98032.00
2022-08-02T11:51:51.140Z,98033.88
2022-08-02T11:54:20.323Z,98032.81
2022-08-02T11:56:47.166Z,98030.38
2022-08-02T11:59:14.594Z,98029.59
2022-08-02T12:01:45.626Z,98028.97
2022-08-02T12:04:12.723Z,98036.78
2022-08-02T12:06:39.097Z,98036.50
2022-08-02T12:09:05.485Z,98029.69
2022-08-02T12:11:44.208Z,98035.59
2022-08-02T12:14:10.705Z,98038.00
2022-08-02T12:16:37.026Z,98034.16
2022-08-02T12:19:03.667Z,98038.50
2022-08-02T12:21:30.112Z,98030.38
2022-08-02T12:24:01.376Z,98039.28
2022-08-02T12:26:28.183Z,98030.06
2022-08-02T12:28:54.605Z,98033.28
2022-08-02T12:31:20.958Z,98025.16
2022-08-02T12:33:47.735Z,98020.50
2022-08-02T12:36:14.099Z,98016.72
2022-08-02T12:38:40.684Z,98018.00
2022-08-02T12:41:30.335Z,98014.50
2022-08-02T12:43:53.542Z,98012.25
2022-08-02T12:46:20.027Z,98004.94
2022-08-02T12:49:08.424Z,98010.06
2022-08-02T12:51:50.979Z,98011.69
2022-08-02T12:54:19.347Z,98005.44
2022-08-02T12:56:49.450Z,97997.63
2022-08-02T12:59:15.838Z,97996.00
2022-08-02T13:01:42.254Z,97993.28
2022-08-02T13:04:13.688Z,97988.38
2022-08-02T13:06:45.160Z,97980.56
2022-08-02T13:09:12.073Z,97980.84
2022-08-02T13:11:43.183Z,97981.16
2022-08-02T13:14:10.259Z,97974.63
2022-08-02T13:16:36.633Z,97974.63
2022-08-02T13:19:03.405Z,97973.53
2022-08-02T13:21:40.947Z,97968.91
2022-08-02T13:24:32.839Z,97974.03
2022-08-02T13:27:04.611Z,97981.56
2022-08-02T13:29:34.786Z,97971.22
2022-08-02T13:32:01.291Z,97973.31
2022-08-02T13:34:28.121Z,97973.81
2022-08-02T13:36:54.497Z,97974.31
2022-08-02T13:39:21.087Z,97974.00
2022-08-02T13:41:47.605Z,97970.97
2022-08-02T13:44:13.998Z,97966.66
2022-08-02T13:46:45.611Z,97960.75
2022-08-02T13:49:17.846Z,97959.13
2022-08-02T13:51:45.095Z,97957.03
2022-08-02T13:54:11.458Z,97947.78
2022-08-02T13:56:37.785Z,97950.22
2022-08-02T13:59:54.109Z,97940.66
2022-08-02T14:01:50.936Z,97935.72
2022-08-02T14:04:17.299Z,97946.56
2022-08-02T14:06:44.504Z,97938.94
2022-08-02T14:09:15.589Z,97944.34
2022-08-02T14:11:43.621Z,97930.50
2022-08-02T14:14:16.060Z,97942.16
2022-08-02T14:16:43.486Z,97939.13
2022-08-02T14:19:16.901Z,97931.78
2022-08-02T14:21:47.295Z,97930.97
2022-08-02T14:24:14.943Z,97936.09
2022-08-02T14:26:41.312Z,97931.78
2022-08-02T14:29:07.776Z,97934.47
2022-08-02T14:31:34.174Z,97922.84
2022-08-02T14:34:01.087Z,97922.84
2022-08-02T14:36:28.185Z,97923.63
2022-08-02T14:38:54.737Z,97906.84
2022-08-02T14:41:21.360Z,97922.53
2022-08-02T14:43:47.919Z,97930.69
2022-08-02T14:46:14.361Z,97932.25
2022-08-02T14:48:40.807Z,97936.59
2022-08-02T14:51:07.126Z,97928.47
2022-08-02T14:53:38.068Z,97939.00
2022-08-02T14:56:15.597Z,97932.75
2022-08-02T14:58:42.240Z,97937.91
2022-08-02T15:01:09.055Z,97931.66
2022-08-02T15:03:43.528Z,97913.78
2022-08-02T15:06:10.281Z,97921.09
2022-08-02T15:08:36.627Z,97918.41
2022-08-02T15:11:03.057Z,97920.31
2022-08-02T15:13:29.399Z,97913.78
2022-08-02T15:15:55.934Z,97917.63
2022-08-02T15:18:22.705Z,97912.19
2022-08-02T15:20:57.234Z,97906.78
2022-08-02T15:23:24.476Z,97908.38
2022-08-02T15:26:01.274Z,97906.78
2022-08-02T15:28:27.598Z,97908.38
2022-08-02T15:30:53.930Z,97903.25
2022-08-02T15:33:20.330Z,97899.41
2022-08-02T15:35:46.685Z,97902.44
2022-08-02T15:38:13.015Z,97905.16
2022-08-02T15:40:39.595Z,97897.34
2022-08-02T15:43:05.898Z,97890.31
2022-08-02T15:45:33.599Z,97894.13
2022-08-02T15:48:00.102Z,97899.56
2022-08-02T15:50:26.853Z,97901.47
2022-08-02T15:52:53.666Z,97900.66
2022-08-02T15:55:20.149Z,97902.56
2022-08-02T15:57:46.511Z,97905.28
2022-08-02T16:00:17.891Z,97903.69
2022-08-02T16:02:45.363Z,97906.41
2022-08-02T16:05:14.435Z,97904.78
2022-08-02T16:07:41.322Z,97907.03
2022-08-02T16:10:08.920Z,97907.03
2022-08-02T16:12:35.739Z,97905.41
2022-08-02T16:15:02.393Z,97906.53
2022-08-02T16:17:51.715Z,97906.03
2022-08-02T16:20:15.502Z,97914.16
2022-08-02T16:22:41.912Z,97911.78
2022-08-02T16:25:08.691Z,97911.78
2022-08-02T16:27:57.488Z,97909.38
2022-08-02T16:30:22.616Z,97915.88
2022-08-02T16:32:49.081Z,97906.94
2022-08-02T16:35:15.718Z,97912.34
2022-08-02T16:37:51.692Z,97911.59
2022-08-02T16:40:19.553Z,97897.84
2022-08-02T16:42:48.780Z,97902.47
2022-08-02T16:45:20.664Z,97898.94
2022-08-02T16:47:56.519Z,97901.66
2022-08-02T16:50:28.093Z,97904.66
2022-08-02T16:52:55.176Z,97894.94
2022-08-02T16:55:25.274Z,97891.75
2022-08-02T16:57:52.134Z,97905.28
2022-08-02T17:00:23.334Z,97899.38
2022-08-02T17:02:49.706Z,97892.38
2022-08-02T17:05:16.141Z,97893.47
2022-08-02T17:08:08.431Z,97888.34
2022-08-02T17:10:28.787Z,97889.47
2022-08-02T17:12:57.110Z,97881.66
2022-08-02T17:16:07.677Z,97885.44
2022-08-02T17:18:09.960Z,97882.25
2022-08-02T17:20:36.326Z,97886.06
2022-08-02T17:23:04.268Z,97885.25
2022-08-02T17:25:31.978Z,97883.69
2022-08-02T17:27:58.895Z,97885.88
2022-08-02T17:30:27.022Z,97881.56
2022-08-02T17:32:54.258Z,97881.09
2022-08-02T17:35:24.703Z,97879.47
2022-08-02T17:37:54.860Z,97879.78
2022-08-02T17:40:36.929Z,97879.78
2022-08-02T17:43:03.567Z,97879.28
2022-08-02T17:45:59.795Z,97887.72
2022-08-02T17:48:36.744Z,97883.41
2022-08-02T17:51:04.234Z,97879.09
2022-08-02T17:53:36.386Z,97881.31
2022-08-02T17:56:03.068Z,97881.59
2022-08-02T17:58:33.103Z,97872.97
2022-08-02T18:00:59.956Z,97873.28
2022-08-02T18:03:26.521Z,97875.16
2022-08-02T18:05:55.198Z,97878.50
2022-08-02T18:08:23.019Z,97875.00
2022-08-02T18:10:49.858Z,97883.41
2022-08-02T18:13:16.413Z,97872.09
2022-08-02T18:15:45.605Z,97879.72
2022-08-02T18:18:12.218Z,97880.81
2022-08-02T18:20:38.527Z,97883.03
2022-08-02T18:23:11.004Z,97882.06
2022-08-02T18:25:45.754Z,97874.31
2022-08-02T18:28:14.270Z,97888.28
2022-08-02T18:30:40.807Z,97884.09
2022-08-02T18:33:57.910Z,97893.41
2022-08-02T18:35:55.377Z,97891.63
2022-08-02T18:38:22.183Z,97888.22
2022-08-02T18:40:50.611Z,97888.84
2022-08-02T18:43:17.624Z,97887.78
2022-08-02T18:46:07.134Z,97885.19
2022-08-02T18:48:30.719Z,97882.59
2022-08-02T18:50:57.467Z,97886.19
2022-08-02T18:53:39.021Z,97895.22
2022-08-02T18:56:08.597Z,97889.09
2022-08-02T18:58:34.905Z,97885.38
2022-08-02T19:01:05.092Z,97886.28
2022-08-02T19:03:41.828Z,97879.09
2022-08-02T19:06:15.694Z,97885.88
2022-08-02T19:08:46.337Z,97884.34
2022-08-02T19:11:35.181Z,97879.56
2022-08-02T19:14:02.610Z,97887.97
2022-08-02T19:16:37.010Z,97879.66
2022-08-02T19:19:04.393Z,97878.63
2022-08-02T19:22:16.549Z,97885.72
2022-08-02T19:24:17.379Z,97877.41
2022-08-02T19:26:51.345Z,97877.19
2022-08-02T19:29:18.724Z,97884.28
2022-08-02T19:32:05.077Z,97881.38
2022-08-02T19:34:51.724Z,97883.88
2022-08-02T19:37:19.064Z,97875.84
2022-08-02T19:39:45.987Z,97878.06
2022-08-02T19:42:12.660Z,97882.44
2022-08-02T19:44:44.891Z,97891.94
2022-08-02T19:47:12.240Z,97886.03
2022-08-02T19:49:39.940Z,97886.94
2022-08-02T19:52:20.636Z,97884.78
2022-08-02T19:54:54.432Z,97886.19
2022-08-02T19:57:23.218Z,97895.16
2022-08-02T19:59:51.483Z,97884.97
2022-08-02T20:02:18.509Z,97890.97
2022-08-02T20:04:49.818Z,97892.34
2022-08-02T20:07:24.230Z,97895.63
2022-08-02T20:10:03.430Z,97898.09
2022-08-02T20:12:35.234Z,97898.69
2022-08-02T20:15:03.697Z,97897.34
2022-08-02T20:17:34.586Z,97897.94
2022-08-02T20:20:00.977Z,97892.31
2022-08-02T20:22:27.285Z,97884.81
2022-08-02T20:24:53.646Z,97898.59
2022-08-02T20:27:21.787Z,97897.59
2022-08-02T20:29:52.271Z,97905.16
2022-08-02T20:32:18.710Z,97907.66
2022-08-02T20:34:48.539Z,97904.44
2022-08-02T20:38:01.420Z,97908.53
2022-08-02T20:40:01.499Z,97917.19
2022-08-02T20:42:27.944Z,97914.28
2022-08-02T20:44:55.685Z,97910.56
2022-08-02T20:47:27.866Z,97924.63
2022-08-02T20:50:05.890Z,97923.31
2022-08-02T20:52:33.943Z,97919.59
2022-08-02T20:55:00.449Z,97924.75
2022-08-02T21:00:13.228Z,97924.88
2022-08-02T21:02:39.663Z,97928.41
2022-08-02T21:07:53.465Z,97921.75
2022-08-02T21:10:21.361Z,97917.22
2022-08-02T21:12:50.391Z,97921.31
2022-08-02T21:15:16.699Z,97924.84
2022-08-02T21:17:45.419Z,97928.94
2022-08-02T21:20:16.858Z,97925.19
2022-08-02T21:22:43.277Z,97929.00
2022-08-02T21:25:11.126Z,97915.28
2022-08-02T21:27:51.687Z,97922.03
2022-08-02T21:30:19.989Z,97918.53
2022-08-02T21:32:50.707Z,97922.63
2022-08-02T21:35:17.883Z,97919.16
2022-08-02T21:37:45.187Z,97919.50
2022-08-02T21:40:11.581Z,97921.72
2022-08-02T21:42:40.087Z,97912.34
2022-08-02T21:45:16.912Z,97907.56
2022-08-02T21:47:43.937Z,97918.66
2022-08-02T21:50:15.969Z,97914.13
2022-08-02T21:56:00.604Z,97919.59
2022-08-02T21:58:15.883Z,97912.34
2022-08-02T22:00:46.867Z,97925.31
2022-08-02T22:03:22.790Z,97923.47
2022-08-02T22:05:50.082Z,97932.91
2022-08-02T22:08:17.242Z,97930.78
2022-08-02T22:10:43.656Z,97922.44
2022-08-02T22:13:14.230Z,97933.50
2022-08-02T22:15:41.238Z,97933.53
2022-08-02T22:18:07.582Z,97935.69
2022-08-02T22:20:43.806Z,97932.22
2022-08-02T22:23:13.005Z,97931.22
2022-08-02T22:25:49.091Z,97937.66
2022-08-02T22:28:38.330Z,97937.69
2022-08-02T22:31:02.640Z,97933.16
2022-08-02T22:33:33.095Z,97932.63
2022-08-02T22:36:00.014Z,97934.25
2022-08-02T22:38:26.305Z,97936.97
2022-08-02T22:40:52.883Z,97938.06
2022-08-02T22:43:23.110Z,97938.88
2022-08-02T22:45:49.776Z,97945.66
2022-08-02T22:48:16.059Z,97945.91
2022-08-02T22:50:42.949Z,97947.28
2022-08-02T22:53:09.310Z,97947.03
2022-08-02T22:55:36.015Z,97944.59
2022-08-02T22:58:08.185Z,97944.88
2022-08-02T22:58:56.591Z,97930.22
2022-08-02T22:59:08.008Z,97924.69
2022-08-02T23:00:34.588Z,97946.22
2022-08-02T23:03:00.982Z,97944.91
2022-08-02T23:05:29.274Z,97942.75
2022-08-02T23:07:55.593Z,97941.97
2022-08-02T23:10:21.876Z,97930.69
2022-08-02T23:12:48.152Z,97929.06
2022-08-02T23:15:14.952Z,97940.13
2022-08-02T23:17:41.243Z,97939.03
2022-08-02T23:20:07.554Z,97938.25
2022-08-02T23:22:33.857Z,97936.09
2022-08-02T23:25:00.189Z,97937.47
2022-08-02T23:27:26.560Z,97940.44
2022-08-02T23:29:52.965Z,97936.38
2022-08-02T23:32:22.853Z,97940.94
2022-08-02T23:34:52.108Z,97937.75
2022-08-02T23:37:18.925Z,97938.25
2022-08-02T23:39:46.101Z,97941.22
2022-08-02T23:42:12.503Z,97936.94
2022-08-02T23:44:38.838Z,97937.22
2022-08-02T23:47:05.163Z,97934.78
2022-08-02T23:49:32.183Z,97941.53
2022-08-02T23:52:01.686Z,97945.28
2022-08-02T23:54:28.875Z,97947.44
2022-08-02T23:56:57.204Z,97945.00
2022-08-02T23:59:23.993Z,97938.03
